createdAt,value
2018-07-31T00:00:15.793Z,0
2018-07-31T00:01:17.839Z,0
2018-07-31T00:02:19.889Z,0
2018-07-31T00:03:22.023Z,0
2018-07-31T00:04:23.990Z,0
2018-07-31T00:05:26.038Z,0
2018-07-31T00:06:28.088Z,0
2018-07-31T00:07:30.439Z,0
2018-07-31T00:08:32.494Z,0
2018-07-31T00:09:34.834Z,0
2018-07-31T00:10:37.426Z,0
2018-07-31T00:11:39.404Z,0
2018-07-31T00:12:41.449Z,0
2018-07-31T00:13:43.505Z,0
2018-07-31T00:14:45.861Z,0
2018-07-31T00:15:47.896Z,0
2018-07-31T00:16:49.944Z,0
2018-07-31T00:17:51.991Z,0
2018-07-31T00:18:54.044Z,0
2018-07-31T00:19:56.361Z,0
2018-07-31T00:20:58.413Z,0
2018-07-31T00:22:00.461Z,0
2018-07-31T00:23:02.799Z,0
2018-07-31T00:24:04.836Z,0
2018-07-31T00:25:06.890Z,0
2018-07-31T00:26:08.934Z,0
2018-07-31T00:27:10.978Z,0
2018-07-31T00:28:13.036Z,0
2018-07-31T00:29:15.077Z,0
2018-07-31T00:30:17.125Z,0
2018-07-31T00:31:19.476Z,0
2018-07-31T00:32:21.922Z,0
2018-07-31T00:33:23.962Z,0
2018-07-31T00:34:26.013Z,0
2018-07-31T00:35:28.057Z,0
2018-07-31T00:36:30.092Z,0
2018-07-31T00:37:32.144Z,0
2018-07-31T00:38:34.192Z,0
2018-07-31T00:39:36.237Z,0
2018-07-31T00:40:38.567Z,0
2018-07-31T00:41:40.624Z,0
2018-07-31T00:42:43.344Z,0
2018-07-31T00:43:45.396Z,0
2018-07-31T00:44:47.453Z,0
2018-07-31T00:45:49.797Z,0
2018-07-31T00:46:51.846Z,0
2018-07-31T00:47:53.897Z,0
2018-07-31T00:48:55.938Z,0
2018-07-31T00:49:57.985Z,0
2018-07-31T00:51:00.035Z,0
2018-07-31T00:52:02.075Z,0
2018-07-31T00:53:04.133Z,0
2018-07-31T00:54:06.181Z,0
2018-07-31T00:55:08.227Z,0
2018-07-31T00:56:10.269Z,0
2018-07-31T00:57:12.317Z,0
2018-07-31T00:58:14.370Z,0
2018-07-31T00:59:16.414Z,0
2018-07-31T01:00:18.465Z,0
2018-07-31T01:01:20.518Z,0
2018-07-31T01:02:22.944Z,0
2018-07-31T01:03:24.998Z,0
2018-07-31T01:04:27.638Z,0
2018-07-31T01:05:29.697Z,0
2018-07-31T01:06:31.736Z,0
2018-07-31T01:07:33.785Z,0
2018-07-31T01:08:36.408Z,0
2018-07-31T01:09:38.446Z,0
2018-07-31T01:10:40.499Z,0
2018-07-31T01:11:42.933Z,0
2018-07-31T01:12:44.972Z,0
2018-07-31T01:13:47.017Z,0
2018-07-31T01:14:49.067Z,0
2018-07-31T01:15:51.109Z,0
2018-07-31T01:16:53.166Z,0
2018-07-31T01:17:55.215Z,0
2018-07-31T01:18:57.256Z,0
2018-07-31T01:19:59.304Z,0
2018-07-31T01:21:01.356Z,0
2018-07-31T01:22:03.391Z,0
2018-07-31T01:23:05.434Z,0
2018-07-31T01:24:08.063Z,0
2018-07-31T01:25:10.104Z,0
2018-07-31T01:26:12.159Z,0
2018-07-31T01:27:14.207Z,0
2018-07-31T01:28:16.252Z,0
2018-07-31T01:29:18.295Z,0
2018-07-31T01:30:20.354Z,0
2018-07-31T01:31:22.394Z,0
2018-07-31T01:32:24.439Z,0
2018-07-31T01:33:26.496Z,0
2018-07-31T01:34:28.816Z,0
2018-07-31T01:35:30.869Z,0
2018-07-31T01:36:32.912Z,0
2018-07-31T01:37:35.257Z,0
2018-07-31T01:38:37.294Z,0
2018-07-31T01:39:39.348Z,0
2018-07-31T01:40:41.391Z,0
2018-07-31T01:41:43.727Z,0
2018-07-31T01:42:45.782Z,0
2018-07-31T01:43:47.827Z,0
2018-07-31T01:44:49.875Z,0
2018-07-31T01:45:51.941Z,0
2018-07-31T01:46:53.974Z,0
2018-07-31T01:47:56.017Z,0
2018-07-31T01:48:58.063Z,0
2018-07-31T01:50:00.102Z,0
2018-07-31T01:51:02.146Z,0
2018-07-31T01:52:04.197Z,0
2018-07-31T01:53:06.532Z,0
2018-07-31T01:54:08.574Z,0
2018-07-31T01:55:10.632Z,0
2018-07-31T01:56:12.677Z,0
2018-07-31T01:57:14.725Z,0
2018-07-31T01:58:17.057Z,0
2018-07-31T01:59:19.093Z,0
2018-07-31T02:00:21.143Z,0
2018-07-31T02:01:23.959Z,0
2018-07-31T02:02:26.007Z,0
2018-07-31T02:03:28.044Z,0
2018-07-31T02:04:30.092Z,0
2018-07-31T02:05:32.139Z,0
2018-07-31T02:06:34.178Z,0
2018-07-31T02:07:36.264Z,0
2018-07-31T02:08:38.300Z,0
2018-07-31T02:09:40.676Z,0
2018-07-31T02:10:42.727Z,0
2018-07-31T02:11:44.784Z,0
2018-07-31T02:12:47.216Z,0
2018-07-31T02:13:49.261Z,0
2018-07-31T02:14:51.308Z,0
2018-07-31T02:15:53.364Z,0
2018-07-31T02:16:55.409Z,0
2018-07-31T02:17:57.738Z,0
2018-07-31T02:19:00.184Z,0
2018-07-31T02:20:02.234Z,0
2018-07-31T02:21:04.563Z,0
2018-07-31T02:22:06.892Z,0
2018-07-31T02:23:08.935Z,0
2018-07-31T02:24:11.550Z,0
2018-07-31T02:25:13.599Z,0
2018-07-31T02:26:15.649Z,0
2018-07-31T02:27:17.697Z,0
2018-07-31T02:28:19.928Z,0
2018-07-31T02:29:21.795Z,0
2018-07-31T02:30:24.228Z,0
2018-07-31T02:31:26.664Z,0
2018-07-31T02:32:29.090Z,0
2018-07-31T02:33:31.520Z,0
2018-07-31T02:34:33.571Z,0
2018-07-31T02:35:36.017Z,0
2018-07-31T02:36:38.058Z,0
2018-07-31T02:37:40.109Z,0
2018-07-31T02:38:42.734Z,0
2018-07-31T02:39:44.773Z,0
2018-07-31T02:40:47.459Z,0
2018-07-31T02:41:49.505Z,0
2018-07-31T02:42:51.843Z,0
2018-07-31T02:43:54.169Z,0
2018-07-31T02:44:56.614Z,0
2018-07-31T02:45:59.039Z,0
2018-07-31T02:47:01.606Z,0
2018-07-31T02:48:03.877Z,0
2018-07-31T02:49:05.917Z,0
2018-07-31T02:50:07.968Z,0
2018-07-31T02:51:10.298Z,0
2018-07-31T02:52:12.349Z,0
2018-07-31T02:53:14.398Z,0
2018-07-31T02:54:16.436Z,0
2018-07-31T02:55:18.481Z,0
2018-07-31T02:56:20.524Z,0
2018-07-31T02:57:22.570Z,0
2018-07-31T02:58:24.627Z,0
2018-07-31T02:59:26.672Z,0
2018-07-31T03:00:28.715Z,0
2018-07-31T03:01:31.155Z,0
2018-07-31T03:02:33.206Z,0
2018-07-31T03:03:35.534Z,0
2018-07-31T03:04:38.172Z,0
2018-07-31T03:05:40.211Z,0
2018-07-31T03:06:42.264Z,0
2018-07-31T03:07:44.303Z,0
2018-07-31T03:08:46.658Z,0
2018-07-31T03:09:48.983Z,0
2018-07-31T03:10:51.901Z,0
2018-07-31T03:11:54.334Z,0
2018-07-31T03:12:56.375Z,0
2018-07-31T03:13:58.433Z,0
2018-07-31T03:15:00.480Z,0
2018-07-31T03:16:02.525Z,0
2018-07-31T03:17:04.960Z,0
2018-07-31T03:18:07.318Z,0
2018-07-31T03:19:09.361Z,0
2018-07-31T03:20:11.799Z,0
2018-07-31T03:21:13.845Z,0
2018-07-31T03:22:16.457Z,0
2018-07-31T03:23:18.898Z,0
2018-07-31T03:24:21.226Z,1
2018-07-31T03:25:23.270Z,1
2018-07-31T03:26:25.596Z,1
2018-07-31T03:27:27.649Z,1
2018-07-31T03:28:29.996Z,1
2018-07-31T03:29:32.339Z,1
2018-07-31T03:30:34.384Z,1
2018-07-31T03:31:37.023Z,1
2018-07-31T03:32:39.067Z,1
2018-07-31T03:33:41.112Z,1
2018-07-31T03:34:43.169Z,2
2018-07-31T03:35:45.217Z,2
2018-07-31T03:36:47.544Z,2
2018-07-31T03:37:49.989Z,2
2018-07-31T03:38:52.026Z,2
2018-07-31T03:39:54.455Z,2
2018-07-31T03:40:56.499Z,2
2018-07-31T03:41:58.547Z,3
2018-07-31T03:43:01.266Z,3
2018-07-31T03:44:03.981Z,3
2018-07-31T03:45:06.030Z,3
2018-07-31T03:46:08.070Z,3
2018-07-31T03:47:10.512Z,4
2018-07-31T03:48:12.552Z,4
2018-07-31T03:49:14.601Z,4
2018-07-31T03:50:16.646Z,4
2018-07-31T03:51:18.698Z,4
2018-07-31T03:52:20.745Z,5
2018-07-31T03:53:23.090Z,5
2018-07-31T03:54:25.450Z,5
2018-07-31T03:55:27.834Z,6
2018-07-31T03:56:30.188Z,6
2018-07-31T03:57:32.237Z,6
2018-07-31T03:58:34.574Z,6
2018-07-31T03:59:36.617Z,7
2018-07-31T04:00:38.675Z,7
2018-07-31T04:01:40.725Z,7
2018-07-31T04:02:42.776Z,8
2018-07-31T04:03:44.823Z,8
2018-07-31T04:04:47.226Z,8
2018-07-31T04:05:49.272Z,8
2018-07-31T04:06:51.630Z,9
2018-07-31T04:07:53.667Z,9
2018-07-31T04:08:55.709Z,9
2018-07-31T04:09:58.036Z,9
2018-07-31T04:11:00.079Z,9
2018-07-31T04:12:02.131Z,10
2018-07-31T04:13:04.179Z,10
2018-07-31T04:14:06.224Z,11
2018-07-31T04:15:08.266Z,11
2018-07-31T04:16:10.322Z,11
2018-07-31T04:17:13.574Z,12
2018-07-31T04:18:15.495Z,12
2018-07-31T04:19:17.546Z,12
2018-07-31T04:20:19.584Z,12
2018-07-31T04:21:22.024Z,12
2018-07-31T04:22:24.069Z,13
2018-07-31T04:23:26.401Z,12
2018-07-31T04:24:29.008Z,13
2018-07-31T04:25:31.064Z,13
2018-07-31T04:26:33.111Z,13
2018-07-31T04:27:35.160Z,13
2018-07-31T04:28:37.215Z,13
2018-07-31T04:29:39.262Z,13
2018-07-31T04:30:41.303Z,13
2018-07-31T04:31:43.356Z,14
2018-07-31T04:32:45.786Z,13
2018-07-31T04:33:48.115Z,14
2018-07-31T04:34:50.158Z,14
2018-07-31T04:35:52.269Z,14
2018-07-31T04:36:54.632Z,14
2018-07-31T04:37:56.685Z,14
2018-07-31T04:38:59.013Z,15
2018-07-31T04:40:01.063Z,15
2018-07-31T04:41:03.434Z,15
2018-07-31T04:42:05.761Z,16
2018-07-31T04:43:07.806Z,16
2018-07-31T04:44:10.139Z,16
2018-07-31T04:45:12.197Z,17
2018-07-31T04:46:14.245Z,17
2018-07-31T04:47:16.296Z,17
2018-07-31T04:48:18.337Z,18
2018-07-31T04:49:20.780Z,18
2018-07-31T04:50:22.928Z,18
2018-07-31T04:51:24.869Z,18
2018-07-31T04:52:26.919Z,19
2018-07-31T04:53:28.953Z,19
2018-07-31T04:54:31.003Z,19
2018-07-31T04:55:33.049Z,20
2018-07-31T04:56:35.492Z,20
2018-07-31T04:57:37.836Z,20
2018-07-31T04:58:39.885Z,20
2018-07-31T04:59:41.990Z,20
2018-07-31T05:00:44.039Z,20
2018-07-31T05:01:46.096Z,20
2018-07-31T05:02:48.142Z,21
2018-07-31T05:03:50.865Z,21
2018-07-31T05:04:53.220Z,21
2018-07-31T05:05:55.265Z,21
2018-07-31T05:06:57.307Z,21
2018-07-31T05:07:59.352Z,21
2018-07-31T05:09:01.682Z,21
2018-07-31T05:10:03.729Z,21
2018-07-31T05:11:05.830Z,21
2018-07-31T05:12:07.830Z,22
2018-07-31T05:13:09.873Z,22
2018-07-31T05:14:12.510Z,22
2018-07-31T05:15:14.561Z,22
2018-07-31T05:16:16.607Z,22
2018-07-31T05:17:18.663Z,22
2018-07-31T05:18:21.133Z,21
2018-07-31T05:19:23.169Z,21
2018-07-31T05:20:25.223Z,21
2018-07-31T05:21:27.576Z,20
2018-07-31T05:22:29.629Z,20
2018-07-31T05:23:31.668Z,21
2018-07-31T05:24:33.719Z,21
2018-07-31T05:25:35.771Z,21
2018-07-31T05:26:37.810Z,21
2018-07-31T05:27:39.864Z,21
2018-07-31T05:28:41.911Z,22
2018-07-31T05:29:44.257Z,22
2018-07-31T05:30:46.294Z,22
2018-07-31T05:31:48.345Z,23
2018-07-31T05:32:50.993Z,23
2018-07-31T05:33:52.940Z,24
2018-07-31T05:34:54.997Z,24
2018-07-31T05:35:57.046Z,24
2018-07-31T05:36:59.094Z,24
2018-07-31T05:38:01.151Z,25
2018-07-31T05:39:03.197Z,24
2018-07-31T05:40:05.251Z,26
2018-07-31T05:41:07.572Z,25
2018-07-31T05:42:09.614Z,26
2018-07-31T05:43:11.668Z,26
2018-07-31T05:44:14.021Z,24
2018-07-31T05:45:16.068Z,26
2018-07-31T05:46:18.516Z,26
2018-07-31T05:47:20.899Z,26
2018-07-31T05:48:22.947Z,26
2018-07-31T05:49:24.995Z,26
2018-07-31T05:50:27.053Z,27
2018-07-31T05:51:29.090Z,28
2018-07-31T05:52:31.140Z,29
2018-07-31T05:53:33.187Z,31
2018-07-31T05:54:35.236Z,30
2018-07-31T05:55:37.558Z,32
2018-07-31T05:56:39.891Z,35
2018-07-31T05:57:41.940Z,36
2018-07-31T05:58:43.984Z,35
2018-07-31T05:59:46.414Z,38
2018-07-31T06:00:48.467Z,38
2018-07-31T06:01:50.516Z,40
2018-07-31T06:02:52.562Z,42
2018-07-31T06:03:54.601Z,44
2018-07-31T06:04:56.937Z,45
2018-07-31T06:05:58.987Z,46
2018-07-31T06:07:01.037Z,45
2018-07-31T06:08:03.480Z,47
2018-07-31T06:09:05.524Z,47
2018-07-31T06:10:07.573Z,47
2018-07-31T06:11:09.624Z,48
2018-07-31T06:12:11.673Z,50
2018-07-31T06:13:13.718Z,50
2018-07-31T06:14:16.055Z,52
2018-07-31T06:15:18.196Z,52
2018-07-31T06:16:20.148Z,53
2018-07-31T06:17:22.203Z,53
2018-07-31T06:18:24.251Z,54
2018-07-31T06:19:26.302Z,54
2018-07-31T06:20:28.640Z,54
2018-07-31T06:21:30.689Z,54
2018-07-31T06:22:32.738Z,54
2018-07-31T06:23:34.788Z,54
2018-07-31T06:24:36.826Z,54
2018-07-31T06:25:38.916Z,54
2018-07-31T06:26:40.924Z,54
2018-07-31T06:27:43.361Z,55
2018-07-31T06:28:45.406Z,55
2018-07-31T06:29:47.456Z,55
2018-07-31T06:30:49.504Z,55
2018-07-31T06:31:51.549Z,55
2018-07-31T06:32:53.663Z,55
2018-07-31T06:33:55.648Z,54
2018-07-31T06:34:57.701Z,54
2018-07-31T06:35:59.753Z,54
2018-07-31T06:37:01.815Z,54
2018-07-31T06:38:03.860Z,54
2018-07-31T06:39:05.907Z,53
2018-07-31T06:40:07.961Z,52
2018-07-31T06:41:10.000Z,50
2018-07-31T06:42:12.059Z,50
2018-07-31T06:43:14.101Z,50
2018-07-31T06:44:16.147Z,50
2018-07-31T06:45:18.198Z,49
2018-07-31T06:46:20.253Z,49
2018-07-31T06:47:22.306Z,49
2018-07-31T06:48:24.661Z,48
2018-07-31T06:49:27.125Z,48
2018-07-31T06:50:29.447Z,48
2018-07-31T06:51:31.497Z,47
2018-07-31T06:52:33.840Z,46
2018-07-31T06:53:36.167Z,45
2018-07-31T06:54:38.215Z,43
2018-07-31T06:55:40.270Z,42
2018-07-31T06:56:42.956Z,43
2018-07-31T06:57:45.261Z,41
2018-07-31T06:58:47.309Z,42
2018-07-31T06:59:49.362Z,41
2018-07-31T07:00:51.405Z,40
2018-07-31T07:01:53.466Z,40
2018-07-31T07:02:55.520Z,41
2018-07-31T07:03:57.866Z,43
2018-07-31T07:05:00.205Z,42
2018-07-31T07:06:02.244Z,42
2018-07-31T07:07:04.300Z,44
2018-07-31T07:08:06.352Z,44
2018-07-31T07:09:08.740Z,45
2018-07-31T07:10:10.760Z,44
2018-07-31T07:11:12.815Z,44
2018-07-31T07:12:14.865Z,45
2018-07-31T07:13:17.308Z,45
2018-07-31T07:14:19.373Z,47
2018-07-31T07:15:21.716Z,47
2018-07-31T07:16:24.051Z,47
2018-07-31T07:17:26.094Z,47
2018-07-31T07:18:28.149Z,48
2018-07-31T07:19:30.203Z,48
2018-07-31T07:20:32.255Z,49
2018-07-31T07:21:34.608Z,49
2018-07-31T07:22:36.755Z,50
2018-07-31T07:23:38.705Z,50
2018-07-31T07:24:41.039Z,50
2018-07-31T07:25:43.098Z,51
2018-07-31T07:26:45.138Z,51
2018-07-31T07:27:47.642Z,52
2018-07-31T07:28:49.996Z,53
2018-07-31T07:29:52.043Z,54
2018-07-31T07:30:54.105Z,55
2018-07-31T07:31:56.158Z,56
2018-07-31T07:32:58.209Z,58
2018-07-31T07:34:00.331Z,61
2018-07-31T07:35:02.316Z,64
2018-07-31T07:36:04.366Z,71
2018-07-31T07:37:06.415Z,76
2018-07-31T07:38:08.474Z,81
2018-07-31T07:39:10.903Z,82
2018-07-31T07:40:13.025Z,79
2018-07-31T07:41:15.020Z,77
2018-07-31T07:42:17.454Z,78
2018-07-31T07:43:19.498Z,81
2018-07-31T07:44:21.554Z,83
2018-07-31T07:45:23.606Z,87
2018-07-31T07:46:25.658Z,91
2018-07-31T07:47:27.719Z,94
2018-07-31T07:48:29.865Z,99
2018-07-31T07:49:31.897Z,102
2018-07-31T07:50:33.884Z,106
2018-07-31T07:51:35.940Z,108
2018-07-31T07:52:38.372Z,109
2018-07-31T07:53:40.717Z,109
2018-07-31T07:54:42.779Z,111
2018-07-31T07:55:45.220Z,113
2018-07-31T07:56:47.270Z,114
2018-07-31T07:57:49.718Z,117
2018-07-31T07:58:51.771Z,119
2018-07-31T07:59:53.814Z,118
2018-07-31T08:00:55.867Z,117
2018-07-31T08:01:58.310Z,114
2018-07-31T08:03:00.357Z,111
2018-07-31T08:04:02.871Z,110
2018-07-31T08:05:04.842Z,108
2018-07-31T08:06:06.898Z,104
2018-07-31T08:07:09.228Z,103
2018-07-31T08:08:11.297Z,99
2018-07-31T08:09:13.348Z,97
2018-07-31T08:10:15.402Z,96
2018-07-31T08:11:17.846Z,94
2018-07-31T08:12:19.895Z,89
2018-07-31T08:13:21.952Z,84
2018-07-31T08:14:24.013Z,79
2018-07-31T08:15:26.653Z,75
2018-07-31T08:16:28.693Z,71
2018-07-31T08:17:30.755Z,69
2018-07-31T08:18:32.815Z,70
2018-07-31T08:19:34.866Z,74
2018-07-31T08:20:37.223Z,80
2018-07-31T08:21:39.558Z,80
2018-07-31T08:22:42.133Z,79
2018-07-31T08:23:44.151Z,79
2018-07-31T08:24:46.204Z,85
2018-07-31T08:25:48.250Z,92
2018-07-31T08:26:50.308Z,96
2018-07-31T08:27:52.412Z,102
2018-07-31T08:28:54.414Z,104
2018-07-31T08:29:56.858Z,117
2018-07-31T08:30:58.913Z,121
2018-07-31T08:32:01.360Z,134
2018-07-31T08:33:03.403Z,129
2018-07-31T08:34:05.461Z,155
2018-07-31T08:35:07.517Z,222
2018-07-31T08:36:09.866Z,262
2018-07-31T08:37:11.933Z,275
2018-07-31T08:38:13.986Z,278
2018-07-31T08:39:16.041Z,292
2018-07-31T08:40:18.093Z,281
2018-07-31T08:41:20.911Z,268
2018-07-31T08:42:22.927Z,277
2018-07-31T08:43:25.267Z,288
2018-07-31T08:44:27.329Z,295
2018-07-31T08:45:29.655Z,288
2018-07-31T08:46:31.717Z,261
2018-07-31T08:47:33.777Z,262
2018-07-31T08:48:36.122Z,266
2018-07-31T08:49:38.830Z,271
2018-07-31T08:50:41.173Z,287
2018-07-31T08:51:43.518Z,289
2018-07-31T08:52:45.572Z,292
2018-07-31T08:53:47.640Z,311
2018-07-31T08:54:49.693Z,306
2018-07-31T08:55:52.171Z,298
2018-07-31T08:56:54.202Z,288
2018-07-31T08:57:56.257Z,274
2018-07-31T08:58:58.309Z,301
2018-07-31T09:00:00.366Z,322
2018-07-31T09:01:03.093Z,324
2018-07-31T09:02:05.147Z,333
2018-07-31T09:03:07.211Z,328
2018-07-31T09:04:09.269Z,332
2018-07-31T09:05:11.322Z,323
2018-07-31T09:06:13.385Z,310
2018-07-31T09:07:15.444Z,301
2018-07-31T09:08:17.587Z,294
2018-07-31T09:09:19.988Z,293
2018-07-31T09:10:22.035Z,310
2018-07-31T09:11:24.093Z,311
2018-07-31T09:12:26.153Z,302
2018-07-31T09:13:28.502Z,286
2018-07-31T09:14:30.549Z,277
2018-07-31T09:15:32.613Z,279
2018-07-31T09:16:34.672Z,300
2018-07-31T09:17:37.040Z,317
2018-07-31T09:18:39.090Z,327
2018-07-31T09:19:41.145Z,329
2018-07-31T09:20:43.525Z,325
2018-07-31T09:21:45.574Z,323
2018-07-31T09:22:47.651Z,326
2018-07-31T09:23:50.296Z,337
2018-07-31T09:24:52.789Z,349
2018-07-31T09:25:54.788Z,377
2018-07-31T09:26:56.835Z,373
2018-07-31T09:27:59.285Z,339
2018-07-31T09:29:01.347Z,340
2018-07-31T09:30:03.402Z,355
2018-07-31T09:31:05.589Z,346
2018-07-31T09:32:07.524Z,333
2018-07-31T09:33:09.585Z,356
2018-07-31T09:34:11.657Z,371
2018-07-31T09:35:14.299Z,364
2018-07-31T09:36:16.354Z,380
2018-07-31T09:37:18.415Z,386
2018-07-31T09:38:20.788Z,358
2018-07-31T09:39:23.222Z,330
2018-07-31T09:40:25.286Z,352
2018-07-31T09:41:27.346Z,345
2018-07-31T09:42:29.401Z,344
2018-07-31T09:43:31.471Z,378
2018-07-31T09:44:33.530Z,380
2018-07-31T09:45:35.877Z,372
2018-07-31T09:46:37.932Z,349
2018-07-31T09:47:39.990Z,372
2018-07-31T09:48:42.059Z,375
2018-07-31T09:49:44.120Z,368
2018-07-31T09:50:46.965Z,286
2018-07-31T09:51:49.042Z,271
2018-07-31T09:52:51.476Z,228
2018-07-31T09:53:53.539Z,166
2018-07-31T09:54:55.597Z,144
2018-07-31T09:55:57.670Z,136
2018-07-31T09:56:59.724Z,140
2018-07-31T09:58:02.073Z,177
2018-07-31T09:59:04.170Z,238
2018-07-31T10:00:06.460Z,183
2018-07-31T10:01:08.533Z,151
2018-07-31T10:02:10.893Z,168
2018-07-31T10:03:13.232Z,308
2018-07-31T10:04:15.572Z,315
2018-07-31T10:05:17.683Z,381
2018-07-31T10:06:19.711Z,172
2018-07-31T10:07:21.779Z,156
2018-07-31T10:08:23.841Z,163
2018-07-31T10:09:26.178Z,425
2018-07-31T10:10:28.249Z,396
2018-07-31T10:11:30.325Z,382
2018-07-31T10:12:32.378Z,263
2018-07-31T10:13:34.443Z,406
2018-07-31T10:14:36.503Z,407
2018-07-31T10:15:38.846Z,409
2018-07-31T10:16:40.920Z,389
2018-07-31T10:17:43.004Z,416
2018-07-31T10:18:45.044Z,226
2018-07-31T10:19:47.098Z,275
2018-07-31T10:20:49.178Z,218
2018-07-31T10:21:51.238Z,193
2018-07-31T10:22:53.582Z,245
2018-07-31T10:23:55.937Z,422
2018-07-31T10:24:57.990Z,412
2018-07-31T10:26:00.057Z,429
2018-07-31T10:27:02.119Z,441
2018-07-31T10:28:04.180Z,424
2018-07-31T10:29:06.238Z,413
2018-07-31T10:30:08.306Z,422
2018-07-31T10:31:10.653Z,402
2018-07-31T10:32:12.723Z,443
2018-07-31T10:33:14.794Z,411
2018-07-31T10:34:16.851Z,410
2018-07-31T10:35:18.913Z,286
2018-07-31T10:36:20.982Z,441
2018-07-31T10:37:23.405Z,449
2018-07-31T10:38:25.420Z,445
2018-07-31T10:39:28.445Z,411
2018-07-31T10:40:31.171Z,424
2018-07-31T10:41:33.236Z,416
2018-07-31T10:42:35.303Z,414
2018-07-31T10:43:37.383Z,427
2018-07-31T10:44:40.037Z,453
2018-07-31T10:45:42.112Z,420
2018-07-31T10:46:44.177Z,420
2018-07-31T10:47:46.528Z,420
2018-07-31T10:48:48.600Z,412
2018-07-31T10:49:50.658Z,382
2018-07-31T10:50:53.108Z,383
2018-07-31T10:51:55.176Z,398
2018-07-31T10:52:57.244Z,430
2018-07-31T10:53:59.298Z,424
2018-07-31T10:55:01.811Z,405
2018-07-31T10:56:03.872Z,422
2018-07-31T10:57:05.931Z,428
2018-07-31T10:58:08.087Z,423
2018-07-31T10:59:10.063Z,440
2018-07-31T11:00:12.171Z,437
2018-07-31T11:01:14.193Z,431
2018-07-31T11:02:16.270Z,432
2018-07-31T11:03:18.341Z,426
2018-07-31T11:04:20.461Z,415
2018-07-31T11:05:22.749Z,399
2018-07-31T11:06:24.889Z,421
2018-07-31T11:07:26.884Z,421
2018-07-31T11:08:29.236Z,437
2018-07-31T11:09:31.307Z,461
2018-07-31T11:10:33.370Z,460
2018-07-31T11:11:35.429Z,446
2018-07-31T11:12:37.496Z,427
2018-07-31T11:13:39.560Z,421
2018-07-31T11:14:41.628Z,420
2018-07-31T11:15:43.699Z,422
2018-07-31T11:16:45.763Z,422
2018-07-31T11:17:48.110Z,445
2018-07-31T11:18:50.778Z,440
2018-07-31T11:19:52.844Z,450
2018-07-31T11:20:55.271Z,294
2018-07-31T11:21:57.291Z,376
2018-07-31T11:22:59.345Z,463
2018-07-31T11:24:01.414Z,497
2018-07-31T11:25:03.480Z,509
2018-07-31T11:26:05.546Z,476
2018-07-31T11:27:07.602Z,505
2018-07-31T11:28:09.672Z,528
2018-07-31T11:29:11.741Z,505
2018-07-31T11:30:14.102Z,545
2018-07-31T11:31:16.462Z,517
2018-07-31T11:32:18.524Z,478
2018-07-31T11:33:20.589Z,492
2018-07-31T11:34:22.941Z,507
2018-07-31T11:35:25.021Z,503
2018-07-31T11:36:27.379Z,504
2018-07-31T11:37:29.445Z,479
2018-07-31T11:38:31.990Z,458
2018-07-31T11:39:34.036Z,463
2018-07-31T11:40:36.104Z,474
2018-07-31T11:41:38.169Z,452
2018-07-31T11:42:40.619Z,453
2018-07-31T11:43:42.684Z,458
2018-07-31T11:44:44.754Z,431
2018-07-31T11:45:47.104Z,409
2018-07-31T11:46:49.465Z,412
2018-07-31T11:47:51.833Z,407
2018-07-31T11:48:53.895Z,394
2018-07-31T11:49:56.497Z,425
2018-07-31T11:50:58.908Z,454
2018-07-31T11:52:00.963Z,429
2018-07-31T11:53:03.414Z,465
2018-07-31T11:54:05.483Z,447
2018-07-31T11:55:07.929Z,437
2018-07-31T11:56:10.011Z,374
2018-07-31T11:57:12.353Z,371
2018-07-31T11:58:14.421Z,325
2018-07-31T11:59:16.762Z,306
2018-07-31T12:00:18.843Z,304
2018-07-31T12:01:20.903Z,413
2018-07-31T12:02:22.972Z,267
2018-07-31T12:03:25.438Z,183
2018-07-31T12:04:27.491Z,159
2018-07-31T12:05:29.562Z,218
2018-07-31T12:06:31.630Z,329
2018-07-31T12:07:33.701Z,347
2018-07-31T12:08:35.757Z,276
2018-07-31T12:09:37.829Z,369
2018-07-31T12:10:39.894Z,404
2018-07-31T12:11:42.525Z,430
2018-07-31T12:12:44.599Z,429
2018-07-31T12:13:46.673Z,440
2018-07-31T12:14:48.730Z,451
2018-07-31T12:15:50.799Z,482
2018-07-31T12:16:52.867Z,454
2018-07-31T12:17:54.929Z,425
2018-07-31T12:18:56.995Z,430
2018-07-31T12:19:59.067Z,454
2018-07-31T12:21:01.129Z,474
2018-07-31T12:22:03.189Z,478
2018-07-31T12:23:05.253Z,480
2018-07-31T12:24:07.333Z,458
2018-07-31T12:25:09.386Z,434
2018-07-31T12:26:11.455Z,451
2018-07-31T12:27:13.523Z,446
2018-07-31T12:28:15.591Z,339
2018-07-31T12:29:17.664Z,428
2018-07-31T12:30:19.738Z,436
2018-07-31T12:31:21.807Z,416
2018-07-31T12:32:24.155Z,409
2018-07-31T12:33:26.234Z,446
2018-07-31T12:34:28.296Z,439
2018-07-31T12:35:30.364Z,363
2018-07-31T12:36:32.440Z,303
2018-07-31T12:37:34.494Z,346
2018-07-31T12:38:37.139Z,304
2018-07-31T12:39:39.127Z,213
2018-07-31T12:40:41.192Z,371
2018-07-31T12:41:43.248Z,385
2018-07-31T12:42:45.325Z,152
2018-07-31T12:43:47.406Z,139
2018-07-31T12:44:49.455Z,122
2018-07-31T12:45:51.814Z,117
2018-07-31T12:46:54.265Z,123
2018-07-31T12:47:56.339Z,212
2018-07-31T12:48:58.712Z,332
2018-07-31T12:50:00.800Z,178
2018-07-31T12:51:02.843Z,230
2018-07-31T12:52:04.922Z,227
2018-07-31T12:53:07.362Z,160
2018-07-31T12:54:09.430Z,200
2018-07-31T12:55:11.502Z,154
2018-07-31T12:56:13.570Z,150
2018-07-31T12:57:15.636Z,156
2018-07-31T12:58:17.697Z,137
2018-07-31T12:59:19.766Z,118
2018-07-31T13:00:21.834Z,111
2018-07-31T13:01:23.897Z,106
2018-07-31T13:02:26.262Z,101
2018-07-31T13:03:28.329Z,96
2018-07-31T13:04:30.397Z,89
2018-07-31T13:05:32.457Z,84
2018-07-31T13:06:34.603Z,80
2018-07-31T13:07:39.095Z,78
2018-07-31T13:08:41.160Z,75
2018-07-31T13:09:43.228Z,75
2018-07-31T13:10:45.286Z,76
2018-07-31T13:11:47.659Z,74
2018-07-31T13:12:50.023Z,68
2018-07-31T13:13:53.063Z,61
2018-07-31T13:14:55.502Z,60
2018-07-31T13:15:57.573Z,56
2018-07-31T13:16:59.638Z,54
2018-07-31T13:18:01.702Z,53
2018-07-31T13:19:04.247Z,51
2018-07-31T13:20:06.222Z,48
2018-07-31T13:21:08.287Z,46
2018-07-31T13:22:10.354Z,44
2018-07-31T13:23:12.426Z,42
2018-07-31T13:24:14.758Z,40
2018-07-31T13:25:16.827Z,38
2018-07-31T13:26:19.181Z,35
2018-07-31T13:27:21.245Z,33
2018-07-31T13:28:23.320Z,32
2018-07-31T13:29:25.665Z,31
2018-07-31T13:30:28.006Z,30
2018-07-31T13:31:30.079Z,30
2018-07-31T13:32:32.142Z,31
2018-07-31T13:33:34.205Z,33
2018-07-31T13:34:36.267Z,39
2018-07-31T13:35:38.339Z,45
2018-07-31T13:36:40.403Z,50
2018-07-31T13:37:42.463Z,59
2018-07-31T13:38:44.521Z,71
2018-07-31T13:39:46.591Z,78
2018-07-31T13:40:48.649Z,77
2018-07-31T13:41:50.710Z,74
2018-07-31T13:42:52.778Z,69
2018-07-31T13:43:55.683Z,65
2018-07-31T13:44:57.594Z,59
2018-07-31T13:45:59.941Z,57
2018-07-31T13:47:02.288Z,60
2018-07-31T13:48:04.339Z,76
2018-07-31T13:49:06.686Z,185
2018-07-31T13:50:08.753Z,227
2018-07-31T13:51:10.813Z,119
2018-07-31T13:52:12.889Z,77
2018-07-31T13:53:15.340Z,76
2018-07-31T13:54:17.746Z,85
2018-07-31T13:55:20.480Z,79
2018-07-31T13:56:22.806Z,76
2018-07-31T13:57:24.863Z,68
2018-07-31T13:58:26.927Z,57
2018-07-31T13:59:28.985Z,51
2018-07-31T14:00:31.433Z,49
2018-07-31T14:01:33.511Z,48
2018-07-31T14:02:36.404Z,46
2018-07-31T14:03:38.466Z,43
2018-07-31T14:04:40.543Z,44
2018-07-31T14:05:42.608Z,47
2018-07-31T14:06:44.669Z,50
2018-07-31T14:07:46.744Z,51
2018-07-31T14:08:49.114Z,50
2018-07-31T14:09:51.198Z,46
2018-07-31T14:10:53.560Z,40
2018-07-31T14:11:55.632Z,36
2018-07-31T14:12:57.978Z,34
2018-07-31T14:14:00.431Z,34
2018-07-31T14:15:02.521Z,33
2018-07-31T14:16:04.579Z,31
2018-07-31T14:17:06.945Z,29
2018-07-31T14:18:09.001Z,30
2018-07-31T14:19:11.058Z,32
2018-07-31T14:20:13.127Z,33
2018-07-31T14:21:15.197Z,34
2018-07-31T14:22:17.254Z,35
2018-07-31T14:23:19.315Z,38
2018-07-31T14:24:21.775Z,41
2018-07-31T14:25:23.770Z,44
2018-07-31T14:26:25.837Z,46
2018-07-31T14:27:28.184Z,46
2018-07-31T14:28:30.242Z,46
2018-07-31T14:29:32.305Z,45
2018-07-31T14:30:34.389Z,46
2018-07-31T14:31:36.436Z,47
2018-07-31T14:32:38.503Z,48
2018-07-31T14:33:40.949Z,48
2018-07-31T14:34:43.005Z,46
2018-07-31T14:35:45.365Z,43
2018-07-31T14:36:47.431Z,38
2018-07-31T14:37:49.485Z,33
2018-07-31T14:38:51.603Z,30
2018-07-31T14:39:53.612Z,29
2018-07-31T14:40:55.671Z,28
2018-07-31T14:41:57.741Z,26
2018-07-31T14:42:59.870Z,26
2018-07-31T14:44:01.863Z,26
2018-07-31T14:45:03.918Z,25